Time;durP1;ratioP1;P1;durP2;ratioP2;P2;SDS_P1;SDS_P2;PMS_P1;PMS_P2;Temp;Humidity;BMP_temperature;BMP_pressure;BME280_temperature;BME280_humidity;BME280_pressure;Samples;Min_cycle;Max_cycle;Signal;HPM_P1;HPM_P2
2022/10/11 00:00:36;;;;;;;;;;;18.50;88.30;;;;;;5112712;28;20027;-69
2022/10/11 00:03:02;;;;;;;;;;;18.20;88.20;;;;;;5112930;28;19927;-67
2022/10/11 00:05:27;;;;;;;;;;;18.60;88.40;;;;;;5113062;28;19927;-65
2022/10/11 00:07:53;;;;;;;;;;;18.30;88.30;;;;;;5105212;28;19924;-68
2022/10/11 00:10:18;;;;;;;;;;;18.50;88.30;;;;;;5086854;28;19924;-69
2022/10/11 00:12:44;;;;;;;;;;;18.50;88.30;;;;;;5111641;28;19927;-67
2022/10/11 00:15:11;;;;;;;;;;;18.40;88.30;;;;;;5113201;28;19923;-70
2022/10/11 00:17:37;;;;;;;;;;;18.30;88.10;;;;;;5112411;28;19991;-68
2022/10/11 00:20:02;;;;;;;;;;;18.20;88.00;;;;;;5108809;28;20010;-70
2022/10/11 00:22:28;;;;;;;;;;;18.40;88.20;;;;;;5113029;28;20277;-69
2022/10/11 00:24:54;;;;;;;;;;;;;;;;;;5113612;28;20304;-63
2022/10/11 00:27:20;;;;;;;;;;;18.40;88.20;;;;;;5112424;28;19927;-67
2022/10/11 00:29:45;;;;;;;;;;;18.30;87.50;;;;;;5110348;28;20323;-64
2022/10/11 00:32:11;;;;;;;;;;;18.50;88.20;;;;;;5111279;28;19966;-69
2022/10/11 00:34:36;;;;;;;;;;;18.30;88.20;;;;;;5112629;28;19924;-69
2022/10/11 00:37:02;;;;;;;;;;;18.10;88.10;;;;;;5112099;28;19924;-69
2022/10/11 00:39:28;;;;;;;;;;;18.40;88.40;;;;;;5114272;28;19927;-69
2022/10/11 00:41:53;;;;;;;;;;;18.40;88.30;;;;;;5110884;28;20434;-70
2022/10/11 00:44:20;;;;;;;;;;;18.40;88.30;;;;;;5112718;28;20002;-67
2022/10/11 00:46:46;;;;;;;;;;;;;;;;;;5111144;28;19924;-64
2022/10/11 00:49:21;;;;;;;;;;;18.20;88.10;;;;;;5113691;28;19931;-69
2022/10/11 00:51:51;;;;;;;;;;;18.30;88.10;;;;;;5110499;28;19924;-70
2022/10/11 00:54:18;;;;;;;;;;;18.20;88.10;;;;;;5109181;28;20289;-70
2022/10/11 00:56:44;;;;;;;;;;;;;;;;;;5112481;28;19931;-69
2022/10/11 00:59:11;;;;;;;;;;;18.30;88.10;;;;;;5110916;28;19924;-69
2022/10/11 01:01:37;;;;;;;;;;;18.30;88.10;;;;;;5090936;28;19932;-65
2022/10/11 01:04:03;;;;;;;;;;;;;;;;;;5091749;28;19931;-63
2022/10/11 01:06:29;;;;;;;;;;;18.30;88.10;;;;;;5111684;28;20041;-68
2022/10/11 01:08:54;;;;;;;;;;;18.20;88.10;;;;;;5093448;28;20046;-69
2022/10/11 01:11:20;;;;;;;;;;;18.20;88.10;;;;;;5113788;28;19931;-68
2022/10/11 01:13:54;;;;;;;;;;;18.30;88.10;;;;;;5110489;28;19939;-67
2022/10/11 01:16:20;;;;;;;;;;;18.20;88.10;;;;;;5112327;28;19930;-69
2022/10/11 01:18:52;;;;;;;;;;;18.30;88.10;;;;;;5112297;28;20368;-64
2022/10/11 01:21:26;;;;;;;;;;;18.20;88.10;;;;;;5113253;28;19962;-69
2022/10/11 01:23:53;;;;;;;;;;;;;;;;;;5113715;28;20380;-70
2022/10/11 01:26:31;;;;;;;;;;;18.20;88.10;;;;;;5115817;28;20026;-68
2022/10/11 01:29:05;;;;;;;;;;;18.20;88.00;;;;;;5108057;28;20335;-70
2022/10/11 01:31:33;;;;;;;;;;;18.20;88.00;;;;;;5115278;28;19928;-68
2022/10/11 01:34:04;;;;;;;;;;;18.20;88.00;;;;;;5095103;28;19967;-65
2022/10/11 01:36:29;;;;;;;;;;;18.20;88.00;;;;;;5117546;28;20282;-70
2022/10/11 01:39:02;;;;;;;;;;;18.20;87.80;;;;;;5113166;28;19930;-70
2022/10/11 01:41:40;;;;;;;;;;;18.30;88.00;;;;;;5115937;28;20353;-70
2022/10/11 01:44:05;;;;;;;;;;;18.10;87.80;;;;;;5115790;28;19930;-65
2022/10/11 01:46:31;;;;;;;;;;;18.10;87.90;;;;;;5117179;28;19928;-65
2022/10/11 01:48:57;;;;;;;;;;;18.10;87.90;;;;;;5091521;28;19924;-70
2022/10/11 01:51:24;;;;;;;;;;;18.10;87.80;;;;;;5114944;28;19984;-67
2022/10/11 01:53:50;;;;;;;;;;;;;;;;;;5082986;28;20044;-65
2022/10/11 01:56:15;;;;;;;;;;;18.40;88.00;;;;;;5115394;28;20381;-68
2022/10/11 01:59:13;;;;;;;;;;;18.10;87.80;;;;;;5113261;28;19932;-69
2022/10/11 02:01:54;;;;;;;;;;;18.20;87.90;;;;;;5051807;28;19968;-68
2022/10/11 02:04:26;;;;;;;;;;;18.10;87.80;;;;;;5053079;28;20374;-67
2022/10/11 02:07:04;;;;;;;;;;;18.20;87.90;;;;;;5051147;28;20307;-68
2022/10/11 02:09:35;;;;;;;;;;;18.20;87.80;;;;;;5036171;28;20251;-68
2022/10/11 02:12:02;;;;;;;;;;;18.00;87.70;;;;;;5052157;28;20323;-69
2022/10/11 02:14:29;;;;;;;;;;;18.30;87.90;;;;;;5033292;28;19932;-69
2022/10/11 02:16:55;;;;;;;;;;;;;;;;;;5016807;28;20023;-63
2022/10/11 02:19:22;;;;;;;;;;;18.10;87.70;;;;;;5052410;28;20412;-67
2022/10/11 02:21:49;;;;;;;;;;;18.20;87.70;;;;;;5049751;28;19925;-69
2022/10/11 02:24:15;;;;;;;;;;;18.40;87.80;;;;;;5049551;28;20409;-69
2022/10/11 02:26:41;;;;;;;;;;;18.20;87.70;;;;;;5042150;28;19929;-67
2022/10/11 02:29:07;;;;;;;;;;;18.00;87.60;;;;;;5039237;28;19974;-69
2022/10/11 02:31:33;;;;;;;;;;;18.20;87.70;;;;;;5032643;28;19925;-69
2022/10/11 02:33:59;;;;;;;;;;;;;;;;;;5032217;28;19926;-67
2022/10/11 02:36:33;;;;;;;;;;;18.00;87.60;;;;;;5056956;28;19999;-66
2022/10/11 02:38:59;;;;;;;;;;;18.20;87.70;;;;;;5094269;28;19924;-67
2022/10/11 02:41:31;;;;;;;;;;;18.30;87.70;;;;;;5094573;28;19923;-69
2022/10/11 02:43:59;;;;;;;;;;;18.10;87.60;;;;;;5080203;28;19924;-70
2022/10/11 02:46:24;;;;;;;;;;;18.10;87.70;;;;;;5094310;28;19924;-70
2022/10/11 02:48:50;;;;;;;;;;;18.10;87.70;;;;;;5110557;28;19923;-65
2022/10/11 02:51:16;;;;;;;;;;;17.90;87.50;;;;;;5077441;28;19923;-66
2022/10/11 02:53:41;;;;;;;;;;;17.90;87.50;;;;;;5114082;28;19924;-68
2022/10/11 02:56:07;;;;;;;;;;;18.20;87.80;;;;;;5115990;28;19924;-70
2022/10/11 02:58:32;;;;;;;;;;;18.20;87.80;;;;;;5113737;28;19977;-70
2022/10/11 03:00:58;;;;;;;;;;;18.20;87.70;;;;;;5113868;28;20353;-64
2022/10/11 03:03:24;;;;;;;;;;;18.20;87.70;;;;;;5113321;28;20254;-66
2022/10/11 03:05:49;;;;;;;;;;;18.10;87.60;;;;;;5114295;28;20424;-69
2022/10/11 03:08:15;;;;;;;;;;;17.80;87.40;;;;;;5114235;28;20293;-69
2022/10/11 03:10:41;;;;;;;;;;;17.90;87.40;;;;;;5095887;28;19927;-68
2022/10/11 03:13:06;;;;;;;;;;;17.80;87.40;;;;;;5110043;28;19924;-70
2022/10/11 03:15:32;;;;;;;;;;;;;;;;;;5094831;28;19947;-62
2022/10/11 03:17:58;;;;;;;;;;;17.90;87.40;;;;;;5113313;28;20385;-70
2022/10/11 03:20:24;;;;;;;;;;;18.00;87.50;;;;;;5095980;28;19924;-69
2022/10/11 03:22:49;;;;;;;;;;;18.00;87.40;;;;;;5114170;28;20437;-67
2022/10/11 03:25:15;;;;;;;;;;;18.00;87.40;;;;;;5111172;28;19924;-67
2022/10/11 03:27:41;;;;;;;;;;;18.00;87.40;;;;;;5109024;28;19928;-66
2022/10/11 03:30:07;;;;;;;;;;;18.20;87.50;;;;;;5105246;28;19919;-71
2022/10/11 03:32:33;;;;;;;;;;;18.10;87.50;;;;;;5099212;28;19931;-66
2022/10/11 03:34:58;;;;;;;;;;;18.00;87.50;;;;;;5113028;28;20297;-61
2022/10/11 03:37:24;;;;;;;;;;;18.00;87.40;;;;;;5085636;28;20373;-70
2022/10/11 03:39:50;;;;;;;;;;;17.90;87.40;;;;;;5102833;28;20364;-70
2022/10/11 03:42:15;;;;;;;;;;;18.30;87.60;;;;;;5113907;28;20365;-68
2022/10/11 03:44:41;;;;;;;;;;;18.10;87.50;;;;;;5111370;28;19953;-67
2022/10/11 03:47:07;;;;;;;;;;;17.90;87.40;;;;;;5114684;28;19963;-70
2022/10/11 03:49:33;;;;;;;;;;;;;;;;;;5111875;28;19923;-69
2022/10/11 03:51:58;;;;;;;;;;;17.90;87.30;;;;;;5111113;28;19923;-71
2022/10/11 03:54:24;;;;;;;;;;;18.00;87.40;;;;;;5111207;28;19924;-70
2022/10/11 03:56:50;;;;;;;;;;;18.00;87.50;;;;;;5111473;28;20437;-71
2022/10/11 06:01:41;;;;;;;;;;;17.80;87.50;;;;;;4842056;29;20453;-66
2022/10/11 06:04:07;;;;;;;;;;;17.80;87.50;;;;;;4841251;29;20033;-65
2022/10/11 06:26:54;;;;;;;;;;;17.90;86.70;;;;;;4286888;28;21766393;-62
2022/10/11 06:32:39;;;;;;;;;;;17.80;86.10;;;;;;5026811;28;19931;-65
2022/10/11 06:35:16;;;;;;;;;;;17.90;86.00;;;;;;5047709;28;20019;-66
2022/10/11 06:44:37;;;;;;;;;;;17.70;84.80;;;;;;5067437;28;20408;-62
2022/10/11 06:47:36;;;;;;;;;;;;;;;;;;;;;
2022/10/11 06:50:02;;;;;;;;;;;17.80;84.60;;;;;;4970522;28;20009;-64
2022/10/11 07:26:29;;;;;;;;;;;18.70;83.60;;;;;;4239977;29;18980000;-61
2022/10/11 07:32:23;;;;;;;;;;;;;;;;;;4151420;27;27759608;-63
2022/10/11 07:48:59;;;;;;;;;;;19.40;83.80;;;;;;5088116;28;19919;-60
2022/10/11 07:51:26;;;;;;;;;;;19.30;83.60;;;;;;5072642;28;19925;-60
2022/10/11 07:53:52;;;;;;;;;;;19.40;82.80;;;;;;5089009;28;19925;-60
2022/10/11 08:03:08;;;;;;;;;;;19.30;83.30;;;;;;5085568;28;19920;-61
2022/10/11 08:05:33;;;;;;;;;;;19.10;83.40;;;;;;5083377;28;19925;-65
2022/10/11 08:07:59;;;;;;;;;;;19.30;83.60;;;;;;5051990;28;20027;-62
2022/10/11 08:10:25;;;;;;;;;;;19.40;83.90;;;;;;5143956;27;19968;-62
2022/10/11 08:12:52;;;;;;;;;;;19.10;83.80;;;;;;5133641;27;19930;-62
2022/10/11 08:15:18;;;;;;;;;;;19.00;83.70;;;;;;5123386;27;20292;-60
2022/10/11 08:17:43;;;;;;;;;;;19.20;83.90;;;;;;5152108;27;19933;-61
2022/10/11 08:20:10;;;;;;;;;;;19.10;83.90;;;;;;5154215;27;19970;-60
2022/10/11 08:22:38;;;;;;;;;;;19.20;83.90;;;;;;5154556;27;19978;-61
2022/10/11 08:25:04;;;;;;;;;;;19.60;84.20;;;;;;5132285;27;19983;-61
2022/10/11 08:27:30;;;;;;;;;;;19.40;84.10;;;;;;5154282;27;19927;-60
2022/10/11 08:29:55;;;;;;;;;;;19.30;84.00;;;;;;5153889;27;20395;-60
2022/10/11 08:32:21;;;;;;;;;;;19.50;84.00;;;;;;5153882;27;19923;-60
2022/10/11 08:34:47;;;;;;;;;;;19.50;83.90;;;;;;5171701;27;20288;-60
2022/10/11 08:37:13;;;;;;;;;;;19.60;83.80;;;;;;5171878;27;19923;-60
2022/10/11 08:39:38;;;;;;;;;;;19.70;83.90;;;;;;5154032;27;19945;-60
2022/10/11 08:42:25;;;;;;;;;;;19.80;83.90;;;;;;5149376;27;19934;-61
2022/10/11 08:44:55;;;;;;;;;;;19.70;83.80;;;;;;5143709;27;19923;-60
2022/10/11 08:47:23;;;;;;;;;;;19.80;83.80;;;;;;5137780;27;19930;-61
2022/10/11 08:49:49;;;;;;;;;;;19.90;83.70;;;;;;5139703;27;19930;-61
2022/10/11 08:52:20;;;;;;;;;;;20.20;83.80;;;;;;5122974;27;19923;-60
2022/10/11 08:54:45;;;;;;;;;;;19.80;83.60;;;;;;5158660;27;19923;-61
2022/10/11 08:57:13;;;;;;;;;;;19.90;83.60;;;;;;5157291;27;19934;-60
2022/10/11 08:59:42;;;;;;;;;;;19.90;83.50;;;;;;5139008;27;19923;-61
2022/10/11 09:02:22;;;;;;;;;;;19.80;83.50;;;;;;5158482;27;19923;-69
2022/10/11 09:04:49;;;;;;;;;;;20.00;83.60;;;;;;5158097;27;19932;-61
2022/10/11 09:07:22;;;;;;;;;;;20.00;83.50;;;;;;5155649;27;19939;-63
2022/10/11 09:09:51;;;;;;;;;;;20.10;83.60;;;;;;5139476;27;19930;-60
2022/10/11 09:12:19;;;;;;;;;;;20.20;82.80;;;;;;5158207;27;19923;-61
2022/10/11 09:15:01;;;;;;;;;;;19.90;83.50;;;;;;5139804;27;19927;-62
2022/10/11 09:17:32;;;;;;;;;;;19.90;83.50;;;;;;5139421;27;19923;-60
2022/10/11 09:19:58;;;;;;;;;;;19.80;83.50;;;;;;5155912;27;19931;-61
2022/10/11 09:22:44;;;;;;;;;;;20.10;83.70;;;;;;5158407;27;19931;-74
2022/10/11 09:25:09;;;;;;;;;;;20.00;83.70;;;;;;5153125;27;20014;-61
2022/10/11 09:27:55;;;;;;;;;;;20.00;83.80;;;;;;5154662;27;20037;-60
2022/10/11 09:30:21;;;;;;;;;;;20.00;83.90;;;;;;5154489;27;19927;-62
2022/10/11 09:32:50;;;;;;;;;;;20.00;84.00;;;;;;5137400;27;20010;-64
2022/10/11 09:35:17;;;;;;;;;;;19.70;84.30;;;;;;5139035;27;19923;-60
2022/10/11 09:37:59;;;;;;;;;;;20.00;84.20;;;;;;5155732;27;19927;-66
2022/10/11 09:40:46;;;;;;;;;;;20.10;84.40;;;;;;5137408;27;20018;-71
2022/10/11 09:43:12;;;;;;;;;;;19.90;84.40;;;;;;5157645;27;19926;-73
2022/10/11 09:45:43;;;;;;;;;;;19.80;84.40;;;;;;5157274;27;20288;-60
2022/10/11 09:48:09;;;;;;;;;;;19.80;84.50;;;;;;5136543;27;19919;-60
2022/10/11 09:50:35;;;;;;;;;;;20.00;84.60;;;;;;5156543;27;19934;-60
2022/10/11 09:53:03;;;;;;;;;;;20.00;84.70;;;;;;5154356;27;19923;-63
2022/10/11 09:55:39;;;;;;;;;;;19.90;84.70;;;;;;5135849;27;19930;-72
2022/10/11 09:58:05;;;;;;;;;;;19.90;84.70;;;;;;5154132;27;19934;-74
2022/10/11 10:00:32;;;;;;;;;;;19.90;84.70;;;;;;5155042;27;21741;-68
2022/10/11 10:02:59;;;;;;;;;;;20.10;84.80;;;;;;5154914;27;20339;-62
2022/10/11 10:05:25;;;;;;;;;;;19.90;84.80;;;;;;5156907;27;20013;-60
2022/10/11 10:07:57;;;;;;;;;;;19.90;84.70;;;;;;5154433;27;19938;-76
2022/10/11 10:10:25;;;;;;;;;;;20.00;84.80;;;;;;5154077;27;19923;-70
2022/10/11 10:13:01;;;;;;;;;;;20.10;84.90;;;;;;5156164;27;20284;-68
2022/10/11 10:15:31;;;;;;;;;;;20.20;85.50;;;;;;5156488;27;19923;-72
2022/10/11 10:17:57;;;;;;;;;;;20.00;84.90;;;;;;5135946;27;19930;-72
2022/10/11 10:20:27;;;;;;;;;;;20.10;84.90;;;;;;5153974;27;19927;-71
2022/10/11 10:22:52;;;;;;;;;;;20.00;84.90;;;;;;5137992;27;19923;-69
2022/10/11 10:25:23;;;;;;;;;;;19.80;84.80;;;;;;5156334;27;19946;-73
2022/10/11 10:27:56;;;;;;;;;;;20.00;84.80;;;;;;5120820;27;19923;-63
2022/10/11 10:30:22;;;;;;;;;;;19.90;84.70;;;;;;5156585;27;19983;-61
2022/10/11 10:32:47;;;;;;;;;;;20.00;84.90;;;;;;5156189;27;20380;-73
2022/10/11 10:35:38;;;;;;;;;;;20.40;84.70;;;;;;5156633;27;19967;-72
2022/10/11 10:38:05;;;;;;;;;;;20.10;83.60;;;;;;5155824;27;20459;-73
2022/10/11 10:40:35;;;;;;;;;;;20.00;84.30;;;;;;5136893;27;20384;-72
2022/10/11 10:43:00;;;;;;;;;;;20.10;84.30;;;;;;5156190;27;19919;-63
2022/10/11 10:45:27;;;;;;;;;;;20.20;84.30;;;;;;5156973;27;19923;-60
2022/10/11 10:47:59;;;;;;;;;;;20.00;84.10;;;;;;5156055;27;19926;-60
2022/10/11 10:50:45;;;;;;;;;;;20.20;83.30;;;;;;5155112;27;19927;-60
2022/10/11 10:53:15;;;;;;;;;;;18.10;82.70;;;;;;5154618;27;20398;-60
2022/10/11 10:55:41;;;;;;;;;;;20.20;83.70;;;;;;5137643;27;20017;-60
2022/10/11 10:58:25;;;;;;;;;;;20.30;84.20;;;;;;5137393;27;19923;-61
2022/10/11 11:00:54;;;;;;;;;;;20.30;82.60;;;;;;5156232;27;19931;-61
2022/10/11 11:03:23;;;;;;;;;;;20.40;84.20;;;;;;5154676;27;20388;-77
2022/10/11 11:06:01;;;;;;;;;;;20.20;83.30;;;;;;5156163;27;20371;-61
2022/10/11 11:08:45;;;;;;;;;;;20.40;83.50;;;;;;5155996;27;19930;-60
2022/10/11 11:11:11;;;;;;;;;;;20.40;82.60;;;;;;5155387;27;20302;-72
2022/10/11 11:13:39;;;;;;;;;;;20.60;83.50;;;;;;5135745;27;19972;-71
2022/10/11 11:16:10;;;;;;;;;;;20.80;84.10;;;;;;5137506;27;19972;-60
2022/10/11 11:18:35;;;;;;;;;;;20.50;84.00;;;;;;5155939;27;19927;-61
2022/10/11 11:21:19;;;;;;;;;;;20.60;83.40;;;;;;5155543;27;19974;-60
2022/10/11 11:24:00;;;;;;;;;;;20.60;82.50;;;;;;5136196;27;19975;-69
2022/10/11 11:26:26;;;;;;;;;;;20.40;83.30;;;;;;5153163;27;19991;-61
2022/10/11 11:29:10;;;;;;;;;;;20.80;83.40;;;;;;5155679;27;20384;-61
2022/10/11 11:31:36;;;;;;;;;;;20.80;83.20;;;;;;5151890;27;20269;-61
2022/10/11 11:34:20;;;;;;;;;;;21.00;83.40;;;;;;5135030;28;19931;-60
2022/10/11 11:36:46;;;;;;;;;;;20.90;83.10;;;;;;5132963;28;19931;-61
2022/10/11 11:39:14;;;;;;;;;;;20.90;83.50;;;;;;5115627;28;19974;-60
2022/10/11 11:41:43;;;;;;;;;;;21.50;83.10;;;;;;5115252;28;19924;-60
2022/10/11 11:44:22;;;;;;;;;;;21.10;83.20;;;;;;5113627;28;19949;-60
2022/10/11 11:46:55;;;;;;;;;;;21.20;82.60;;;;;;5115729;28;20288;-61
2022/10/11 11:49:28;;;;;;;;;;;21.10;82.40;;;;;;5134921;28;19923;-61
2022/10/11 11:51:53;;;;;;;;;;;21.10;81.50;;;;;;5134757;28;20289;-62
2022/10/11 11:54:31;;;;;;;;;;;21.20;82.60;;;;;;5134887;28;19923;-62
2022/10/11 11:56:59;;;;;;;;;;;21.20;82.40;;;;;;5125470;27;20449;-62
2022/10/11 11:59:28;;;;;;;;;;;21.50;82.90;;;;;;5118689;28;19970;-61
2022/10/11 12:02:00;;;;;;;;;;;21.40;80.90;;;;;;5115504;28;20365;-61
2022/10/11 12:04:28;;;;;;;;;;;21.50;80.80;;;;;;5107776;28;19979;-61
2022/10/11 12:06:58;;;;;;;;;;;21.60;82.30;;;;;;5115589;28;19927;-61
2022/10/11 12:09:29;;;;;;;;;;;21.30;80.50;;;;;;5111675;28;19924;-60
2022/10/11 12:11:56;;;;;;;;;;;21.40;82.00;;;;;;5116295;28;20304;-61
2022/10/11 12:14:26;;;;;;;;;;;21.30;82.00;;;;;;5134569;28;19923;-61
2022/10/11 12:17:10;;;;;;;;;;;21.40;82.30;;;;;;5116622;27;19978;-61
2022/10/11 12:19:36;;;;;;;;;;;21.30;81.00;;;;;;5138226;27;19975;-61
2022/10/11 12:22:15;;;;;;;;;;;21.00;82.40;;;;;;5120190;27;20013;-60
2022/10/11 12:24:56;;;;;;;;;;;20.90;81.30;;;;;;5120157;27;19972;-60
2022/10/11 12:27:38;;;;;;;;;;;21.00;81.60;;;;;;5138491;27;19924;-61
2022/10/11 12:30:24;;;;;;;;;;;20.80;82.80;;;;;;5138151;27;19979;-61
2022/10/11 12:32:50;;;;;;;;;;;20.70;83.10;;;;;;5152175;27;19923;-61
2022/10/11 12:35:31;;;;;;;;;;;20.80;83.00;;;;;;5140614;27;20344;-61
2022/10/11 12:38:13;;;;;;;;;;;20.70;82.20;;;;;;5140194;27;19919;-60
2022/10/11 12:40:42;;;;;;;;;;;20.70;82.30;;;;;;5158631;27;19978;-60
2022/10/11 12:43:08;;;;;;;;;;;20.80;83.40;;;;;;5140855;27;19919;-60
2022/10/11 12:45:34;;;;;;;;;;;20.70;84.00;;;;;;5140325;27;20333;-60
2022/10/11 12:48:06;;;;;;;;;;;20.40;83.90;;;;;;5158306;27;19919;-60
2022/10/11 12:50:31;;;;;;;;;;;20.50;82.80;;;;;;5158208;27;19923;-60
2022/10/11 12:53:11;;;;;;;;;;;20.50;84.10;;;;;;5139871;27;19930;-60
2022/10/11 12:55:57;;;;;;;;;;;20.40;84.00;;;;;;5138738;27;19970;-70
2022/10/11 12:58:42;;;;;;;;;;;20.40;82.80;;;;;;5137986;27;20018;-62
2022/10/11 13:01:16;;;;;;;;;;;20.10;83.10;;;;;;5137796;27;19971;-61
2022/10/11 13:03:45;;;;;;;;;;;20.50;83.40;;;;;;5119180;27;19930;-61
2022/10/11 13:06:16;;;;;;;;;;;20.50;83.40;;;;;;5136246;27;19927;-61
2022/10/11 13:08:43;;;;;;;;;;;20.30;84.30;;;;;;5156607;27;20288;-63
2022/10/11 13:11:09;;;;;;;;;;;20.20;84.70;;;;;;5157209;27;19923;-69
2022/10/11 13:13:39;;;;;;;;;;;20.30;84.30;;;;;;5140072;27;20009;-60
2022/10/11 13:16:10;;;;;;;;;;;20.20;84.20;;;;;;5139844;27;19966;-79
2022/10/11 13:18:39;;;;;;;;;;;20.20;84.30;;;;;;5137166;27;19975;-79
2022/10/11 13:21:14;;;;;;;;;;;20.30;84.30;;;;;;5140257;27;19946;-76
2022/10/11 13:23:39;;;;;;;;;;;20.20;84.20;;;;;;5137015;27;20297;-61
2022/10/11 13:26:05;;;;;;;;;;;20.20;84.40;;;;;;5147616;27;19924;-60
2022/10/11 13:28:31;;;;;;;;;;;20.30;84.20;;;;;;5153463;27;20296;-61
2022/10/11 13:30:57;;;;;;;;;;;20.30;84.30;;;;;;5139274;27;19923;-61
2022/10/11 13:33:26;;;;;;;;;;;20.20;84.30;;;;;;5138999;27;19923;-60
2022/10/11 13:35:52;;;;;;;;;;;20.30;83.50;;;;;;5157860;27;19923;-80
2022/10/11 13:38:27;;;;;;;;;;;20.10;84.30;;;;;;5148355;27;20005;-62
2022/10/11 13:40:54;;;;;;;;;;;20.20;84.40;;;;;;5152911;27;20303;-61
2022/10/11 13:43:21;;;;;;;;;;;20.20;84.50;;;;;;5156410;27;20014;-65
2022/10/11 13:45:46;;;;;;;;;;;20.40;84.70;;;;;;5137891;27;19931;-62
2022/10/11 13:48:13;;;;;;;;;;;20.00;84.40;;;;;;5139121;27;19926;-64
2022/10/11 13:50:38;;;;;;;;;;;20.10;84.50;;;;;;5156219;27;19923;-61
2022/10/11 13:53:10;;;;;;;;;;;20.00;84.50;;;;;;5155658;27;19972;-62
2022/10/11 13:55:54;;;;;;;;;;;20.10;83.70;;;;;;5157045;27;20341;-63
2022/10/11 13:58:39;;;;;;;;;;;20.20;83.70;;;;;;5156996;27;19923;-62
2022/10/11 14:01:25;;;;;;;;;;;20.00;83.90;;;;;;5121736;27;19927;-61
2022/10/11 14:03:55;;;;;;;;;;;20.30;85.10;;;;;;5139038;27;19923;-65
2022/10/11 14:06:21;;;;;;;;;;;20.20;85.10;;;;;;5157251;27;19930;-75
2022/10/11 14:08:52;;;;;;;;;;;19.90;84.90;;;;;;5157196;27;20354;-75
2022/10/11 14:11:18;;;;;;;;;;;;;;;;;;5138248;27;19974;-69
2022/10/11 14:13:46;;;;;;;;;;;20.20;83.70;;;;;;5156904;27;19975;-73
2022/10/11 14:16:13;;;;;;;;;;;20.10;85.00;;;;;;5121435;27;19923;-62
2022/10/11 14:18:44;;;;;;;;;;;20.30;85.10;;;;;;5156705;27;20379;-71
2022/10/11 14:21:19;;;;;;;;;;;20.10;84.00;;;;;;5156806;27;19946;-67
2022/10/11 14:23:58;;;;;;;;;;;20.00;84.70;;;;;;5156854;27;19965;-77
2022/10/11 14:26:24;;;;;;;;;;;20.20;84.60;;;;;;5156398;27;19928;-74
2022/10/11 14:28:59;;;;;;;;;;;20.10;84.60;;;;;;5156614;27;19929;-61
2022/10/11 14:31:25;;;;;;;;;;;20.20;84.20;;;;;;5156337;27;19923;-62
2022/10/11 14:33:51;;;;;;;;;;;19.80;83.90;;;;;;5137899;27;20281;-61
2022/10/11 14:36:17;;;;;;;;;;;19.90;83.80;;;;;;5156633;27;19923;-62
2022/10/11 14:38:42;;;;;;;;;;;20.00;83.90;;;;;;5155938;27;20432;-61
2022/10/11 14:41:08;;;;;;;;;;;20.10;83.90;;;;;;5156613;27;19962;-61
2022/10/11 14:43:34;;;;;;;;;;;20.10;83.90;;;;;;5137617;27;19927;-64
2022/10/11 14:45:59;;;;;;;;;;;19.70;83.70;;;;;;5156421;27;19965;-76
2022/10/11 14:48:25;;;;;;;;;;;19.80;83.80;;;;;;5156212;27;19930;-68
2022/10/11 14:50:51;;;;;;;;;;;19.90;84.20;;;;;;5156191;27;19923;-65
2022/10/11 14:53:17;;;;;;;;;;;19.70;84.00;;;;;;5137910;27;19930;-61
2022/10/11 14:55:43;;;;;;;;;;;19.90;84.40;;;;;;5156284;27;19919;-60
2022/10/11 14:58:08;;;;;;;;;;;21.00;84.90;;;;;;5155830;27;20384;-60
2022/10/11 15:00:34;;;;;;;;;;;19.80;84.70;;;;;;5137771;27;20014;-60
2022/10/11 15:03:00;;;;;;;;;;;19.80;84.60;;;;;;5155845;27;20295;-60
2022/10/11 15:05:26;;;;;;;;;;;20.00;84.70;;;;;;5155985;27;19930;-60
2022/10/11 15:07:52;;;;;;;;;;;20.00;84.90;;;;;;5137571;27;20295;-60
2022/10/11 15:10:47;;;;;;;;;;;19.80;85.60;;;;;;5155989;27;19923;-61
2022/10/11 15:13:13;;;;;;;;;;;19.60;84.70;;;;;;5071965;28;19931;-60
2022/10/11 15:15:39;;;;;;;;;;;19.60;84.90;;;;;;5071843;28;19925;-60
2022/10/11 15:18:05;;;;;;;;;;;19.70;84.90;;;;;;5072372;28;20293;-60
2022/10/11 15:20:32;;;;;;;;;;;19.80;85.00;;;;;;5054813;28;19931;-60
2022/10/11 15:22:57;;;;;;;;;;;19.70;85.00;;;;;;5067796;28;19932;-62
2022/10/11 15:25:23;;;;;;;;;;;19.90;85.10;;;;;;5063536;28;19935;-61
2022/10/11 15:27:49;;;;;;;;;;;19.60;85.00;;;;;;5067302;28;19967;-61
2022/10/11 15:30:16;;;;;;;;;;;19.70;85.30;;;;;;5054931;28;19927;-61
2022/10/11 15:32:41;;;;;;;;;;;19.80;85.30;;;;;;5071460;28;19932;-79
2022/10/11 15:35:07;;;;;;;;;;;19.70;85.30;;;;;;5070748;28;19924;-60
2022/10/11 15:37:33;;;;;;;;;;;20.10;85.50;;;;;;5070386;28;20007;-60
2022/10/11 15:39:58;;;;;;;;;;;19.90;85.80;;;;;;5071618;28;20394;-62
2022/10/11 15:42:24;;;;;;;;;;;19.80;85.60;;;;;;5071521;28;19920;-61
2022/10/11 15:44:50;;;;;;;;;;;19.70;85.50;;;;;;5060083;28;19925;-61
2022/10/11 15:47:15;;;;;;;;;;;19.90;85.70;;;;;;5066546;28;19931;-63
2022/10/11 15:49:41;;;;;;;;;;;19.70;85.50;;;;;;5077678;28;20285;-61
2022/10/11 15:52:07;;;;;;;;;;;19.70;85.60;;;;;;5114732;28;19924;-60
2022/10/11 15:54:32;;;;;;;;;;;19.60;85.60;;;;;;5121469;27;19923;-60
2022/10/11 15:56:58;;;;;;;;;;;19.70;85.80;;;;;;5126958;27;20026;-61
2022/10/11 15:59:24;;;;;;;;;;;19.60;85.80;;;;;;5138876;27;19978;-61
2022/10/11 16:01:49;;;;;;;;;;;19.80;86.00;;;;;;5132352;27;20448;-60
2022/10/11 16:04:15;;;;;;;;;;;19.80;86.40;;;;;;5128735;27;20327;-60
2022/10/11 16:06:41;;;;;;;;;;;19.90;86.40;;;;;;5110461;27;19924;-60
2022/10/11 16:09:06;;;;;;;;;;;19.70;86.60;;;;;;5127749;27;20274;-60
2022/10/11 16:11:32;;;;;;;;;;;19.60;86.30;;;;;;5131653;27;19923;-61
2022/10/11 16:13:58;;;;;;;;;;;20.00;86.60;;;;;;5129908;27;20400;-71
2022/10/11 16:16:23;;;;;;;;;;;19.60;86.50;;;;;;5125312;27;19935;-74
2022/10/11 16:18:49;;;;;;;;;;;19.90;86.60;;;;;;5134227;27;20321;-61
2022/10/11 16:21:15;;;;;;;;;;;19.90;86.80;;;;;;5138501;27;19932;-60
2022/10/11 16:23:41;;;;;;;;;;;19.60;86.70;;;;;;5137654;27;20401;-61
2022/10/11 16:26:07;;;;;;;;;;;20.10;87.10;;;;;;5137581;27;19924;-60
2022/10/11 16:28:33;;;;;;;;;;;20.00;87.20;;;;;;5137886;27;19938;-60
2022/10/11 16:30:58;;;;;;;;;;;19.90;87.30;;;;;;5138330;27;19924;-60
2022/10/11 16:33:24;;;;;;;;;;;19.60;87.20;;;;;;5154853;27;19927;-60
2022/10/11 16:35:50;;;;;;;;;;;19.70;87.20;;;;;;5158718;27;19923;-61
2022/10/11 16:38:15;;;;;;;;;;;19.90;87.40;;;;;;5151971;27;19923;-60
2022/10/11 16:40:42;;;;;;;;;;;;;;;;;;5149274;27;20376;-69
2022/10/11 16:43:07;;;;;;;;;;;19.60;85.90;;;;;;5158555;27;19923;-60
2022/10/11 16:45:33;;;;;;;;;;;19.70;87.30;;;;;;5157763;27;19934;-59
2022/10/11 16:47:58;;;;;;;;;;;19.90;87.50;;;;;;5158740;27;19929;-61
2022/10/11 16:50:24;;;;;;;;;;;19.40;87.20;;;;;;5157817;27;20361;-60
2022/10/11 16:52:52;;;;;;;;;;;19.80;87.40;;;;;;5158050;27;19930;-60
2022/10/11 16:55:17;;;;;;;;;;;19.90;87.40;;;;;;5158678;27;20025;-61
2022/10/11 16:57:43;;;;;;;;;;;19.70;87.40;;;;;;5158142;27;19965;-59
2022/10/11 17:00:10;;;;;;;;;;;19.70;87.40;;;;;;5157383;27;19927;-60
2022/10/11 17:02:35;;;;;;;;;;;19.80;87.60;;;;;;5156042;27;20330;-60
2022/10/11 17:05:01;;;;;;;;;;;19.40;87.20;;;;;;5155546;27;19969;-60
2022/10/11 17:07:27;;;;;;;;;;;19.80;87.50;;;;;;5139909;27;19930;-61
2022/10/11 17:09:52;;;;;;;;;;;19.50;87.50;;;;;;5158006;27;19923;-60
2022/10/11 17:12:19;;;;;;;;;;;19.60;87.80;;;;;;5156385;27;19923;-60
2022/10/11 17:14:45;;;;;;;;;;;19.60;87.90;;;;;;5156065;27;19930;-60
2022/10/11 17:17:10;;;;;;;;;;;19.50;88.00;;;;;;5157760;27;19927;-67
2022/10/11 17:19:36;;;;;;;;;;;19.50;88.20;;;;;;5158008;27;20292;-60
2022/10/11 17:22:02;;;;;;;;;;;19.70;88.50;;;;;;5156354;27;19926;-60
2022/10/11 17:24:27;;;;;;;;;;;19.60;88.40;;;;;;5139223;27;20381;-61
2022/10/11 17:26:53;;;;;;;;;;;19.50;88.40;;;;;;5146033;27;19931;-61
2022/10/11 17:29:20;;;;;;;;;;;19.50;88.50;;;;;;5139290;27;19923;-60
2022/10/11 17:31:45;;;;;;;;;;;19.40;88.50;;;;;;5153568;27;19942;-61
2022/10/11 17:34:12;;;;;;;;;;;19.40;88.80;;;;;;5157437;27;19923;-60
2022/10/11 17:36:37;;;;;;;;;;;19.50;88.60;;;;;;5156738;27;19976;-77
2022/10/11 17:39:05;;;;;;;;;;;19.50;88.60;;;;;;5155406;27;19931;-61
2022/10/11 17:41:30;;;;;;;;;;;19.40;88.40;;;;;;5134850;27;19970;-60
2022/10/11 17:43:56;;;;;;;;;;;19.10;88.20;;;;;;5136966;27;19930;-60
2022/10/11 17:46:24;;;;;;;;;;;19.20;87.60;;;;;;5139777;27;19923;-61
2022/10/11 17:48:50;;;;;;;;;;;19.30;87.70;;;;;;5136427;27;20014;-60
2022/10/11 17:51:17;;;;;;;;;;;19.10;87.30;;;;;;5136730;27;19930;-60
2022/10/11 17:53:42;;;;;;;;;;;19.40;87.60;;;;;;5141311;27;19930;-60
2022/10/11 17:56:09;;;;;;;;;;;19.30;87.80;;;;;;5157474;27;19924;-60
2022/10/11 17:58:35;;;;;;;;;;;19.10;87.50;;;;;;5157267;27;20330;-60
2022/10/11 18:01:04;;;;;;;;;;;19.20;87.60;;;;;;5157375;27;19923;-60
2022/10/11 18:03:30;;;;;;;;;;;19.10;87.60;;;;;;5157009;27;19923;-60